sensor_id;sensor_type;location;lat;lon;timestamp;temperature;humidity
17421;DHT22;8828;48.800;9.540;2022-09-03T00:00:23;20.10;77.50
17421;DHT22;8828;48.800;9.540;2022-09-03T00:02:58;20.10;77.70
17421;DHT22;8828;48.800;9.540;2022-09-03T00:05:36;20.10;77.70
17421;DHT22;8828;48.800;9.540;2022-09-03T00:08:10;20.10;78.50
17421;DHT22;8828;48.800;9.540;2022-09-03T00:10:45;20.00;78.00
17421;DHT22;8828;48.800;9.540;2022-09-03T00:13:20;20.00;78.20
17421;DHT22;8828;48.800;9.540;2022-09-03T00:15:50;20.00;78.20
17421;DHT22;8828;48.800;9.540;2022-09-03T00:18:22;20.00;78.70
17421;DHT22;8828;48.800;9.540;2022-09-03T00:20:56;20.00;78.70
17421;DHT22;8828;48.800;9.540;2022-09-03T00:23:27;20.00;78.90
17421;DHT22;8828;48.800;9.540;2022-09-03T00:26:13;20.00;79.00
17421;DHT22;8828;48.800;9.540;2022-09-03T00:28:45;19.90;79.10
17421;DHT22;8828;48.800;9.540;2022-09-03T00:31:18;20.00;79.10
17421;DHT22;8828;48.800;9.540;2022-09-03T00:33:57;20.00;79.20
17421;DHT22;8828;48.800;9.540;2022-09-03T00:36:34;19.90;79.20
17421;DHT22;8828;48.800;9.540;2022-09-03T00:39:12;19.90;79.20
17421;DHT22;8828;48.800;9.540;2022-09-03T00:41:52;19.90;79.40
17421;DHT22;8828;48.800;9.540;2022-09-03T00:44:35;19.90;79.80
17421;DHT22;8828;48.800;9.540;2022-09-03T00:47:13;19.90;80.10
17421;DHT22;8828;48.800;9.540;2022-09-03T00:49:53;19.80;80.20
17421;DHT22;8828;48.800;9.540;2022-09-03T00:52:37;19.80;80.40
17421;DHT22;8828;48.800;9.540;2022-09-03T00:55:19;19.80;80.60
17421;DHT22;8828;48.800;9.540;2022-09-03T00:58:11;19.80;80.70
17421;DHT22;8828;48.800;9.540;2022-09-03T01:00:42;19.80;80.70
17421;DHT22;8828;48.800;9.540;2022-09-03T01:03:15;19.80;80.80
17421;DHT22;8828;48.800;9.540;2022-09-03T01:05:56;19.80;81.10
17421;DHT22;8828;48.800;9.540;2022-09-03T01:08:39;19.80;81.20
17421;DHT22;8828;48.800;9.540;2022-09-03T01:11:22;19.80;81.30
17421;DHT22;8828;48.800;9.540;2022-09-03T01:13:58;19.80;81.50
17421;DHT22;8828;48.800;9.540;2022-09-03T01:16:36;19.70;82.30
17421;DHT22;8828;48.800;9.540;2022-09-03T01:19:24;19.70;81.70
17421;DHT22;8828;48.800;9.540;2022-09-03T01:22:14;19.70;81.90
17421;DHT22;8828;48.800;9.540;2022-09-03T01:25:01;19.70;82.10
17421;DHT22;8828;48.800;9.540;2022-09-03T01:27:43;19.70;82.20
17421;DHT22;8828;48.800;9.540;2022-09-03T01:30:16;19.70;82.00
17421;DHT22;8828;48.800;9.540;2022-09-03T01:32:51;19.70;81.80
17421;DHT22;8828;48.800;9.540;2022-09-03T01:35:32;19.70;81.80
17421;DHT22;8828;48.800;9.540;2022-09-03T01:38:13;19.80;81.80
17421;DHT22;8828;48.800;9.540;2022-09-03T01:40:53;19.80;81.90
17421;DHT22;8828;48.800;9.540;2022-09-03T01:43:33;19.70;82.10
17421;DHT22;8828;48.800;9.540;2022-09-03T01:46:18;19.70;82.40
17421;DHT22;8828;48.800;9.540;2022-09-03T01:48:54;19.70;82.70
17421;DHT22;8828;48.800;9.540;2022-09-03T01:51:28;19.70;83.00
17421;DHT22;8828;48.800;9.540;2022-09-03T02:00:13;19.70;83.10
17421;DHT22;8828;48.800;9.540;2022-09-03T02:02:43;19.70;83.20
17421;DHT22;8828;48.800;9.540;2022-09-03T02:05:16;19.70;83.10
17421;DHT22;8828;48.800;9.540;2022-09-03T02:07:46;19.80;83.40
17421;DHT22;8828;48.800;9.540;2022-09-03T02:10:19;19.70;83.40
17421;DHT22;8828;48.800;9.540;2022-09-03T02:12:50;19.70;83.00
17421;DHT22;8828;48.800;9.540;2022-09-03T02:15:21;19.70;82.90
17421;DHT22;8828;48.800;9.540;2022-09-03T02:17:54;19.80;82.90
17421;DHT22;8828;48.800;9.540;2022-09-03T02:20:26;19.80;82.80
17421;DHT22;8828;48.800;9.540;2022-09-03T02:22:56;19.80;83.10
17421;DHT22;8828;48.800;9.540;2022-09-03T02:25:29;19.80;82.80
17421;DHT22;8828;48.800;9.540;2022-09-03T02:27:59;19.80;82.70
17421;DHT22;8828;48.800;9.540;2022-09-03T02:30:28;19.80;82.40
17421;DHT22;8828;48.800;9.540;2022-09-03T02:32:58;19.80;82.30
17421;DHT22;8828;48.800;9.540;2022-09-03T02:35:26;19.80;82.20
17421;DHT22;8828;48.800;9.540;2022-09-03T02:37:53;19.80;82.30
17421;DHT22;8828;48.800;9.540;2022-09-03T02:40:21;19.80;82.20
17421;DHT22;8828;48.800;9.540;2022-09-03T02:42:49;19.80;81.90
17421;DHT22;8828;48.800;9.540;2022-09-03T02:45:26;19.80;82.20
17421;DHT22;8828;48.800;9.540;2022-09-03T02:47:58;19.80;82.50
17421;DHT22;8828;48.800;9.540;2022-09-03T02:50:26;19.80;82.80
17421;DHT22;8828;48.800;9.540;2022-09-03T02:52:54;19.80;82.70
17421;DHT22;8828;48.800;9.540;2022-09-03T02:55:22;19.80;81.70
17421;DHT22;8828;48.800;9.540;2022-09-03T02:57:50;19.80;82.80
17421;DHT22;8828;48.800;9.540;2022-09-03T03:00:18;19.80;83.40
17421;DHT22;8828;48.800;9.540;2022-09-03T03:02:46;19.80;83.60
17421;DHT22;8828;48.800;9.540;2022-09-03T03:05:22;19.70;84.30
17421;DHT22;8828;48.800;9.540;2022-09-03T03:07:51;19.70;83.90
17421;DHT22;8828;48.800;9.540;2022-09-03T03:10:19;19.70;84.50
17421;DHT22;8828;48.800;9.540;2022-09-03T03:12:47;19.70;85.00
17421;DHT22;8828;48.800;9.540;2022-09-03T03:15:16;19.60;85.10
17421;DHT22;8828;48.800;9.540;2022-09-03T03:17:45;19.60;85.60
17421;DHT22;8828;48.800;9.540;2022-09-03T03:20:13;19.50;85.00
17421;DHT22;8828;48.800;9.540;2022-09-03T03:22:42;19.50;85.50
17421;DHT22;8828;48.800;9.540;2022-09-03T03:25:10;19.50;85.20
17421;DHT22;8828;48.800;9.540;2022-09-03T03:27:38;19.50;84.30
17421;DHT22;8828;48.800;9.540;2022-09-03T03:30:09;19.50;83.30
17421;DHT22;8828;48.800;9.540;2022-09-03T03:32:38;19.50;83.10
17421;DHT22;8828;48.800;9.540;2022-09-03T03:35:07;19.50;82.80
17421;DHT22;8828;48.800;9.540;2022-09-03T03:37:34;19.50;83.20
17421;DHT22;8828;48.800;9.540;2022-09-03T03:40:05;19.50;83.00
17421;DHT22;8828;48.800;9.540;2022-09-03T03:42:33;19.50;83.10
17421;DHT22;8828;48.800;9.540;2022-09-03T03:45:01;19.60;83.60
17421;DHT22;8828;48.800;9.540;2022-09-03T03:47:29;19.60;83.80
17421;DHT22;8828;48.800;9.540;2022-09-03T03:49:58;19.50;83.70
17421;DHT22;8828;48.800;9.540;2022-09-03T03:52:26;19.50;84.80
17421;DHT22;8828;48.800;9.540;2022-09-03T03:54:54;19.50;83.80
17421;DHT22;8828;48.800;9.540;2022-09-03T03:57:24;19.50;84.10
17421;DHT22;8828;48.800;9.540;2022-09-03T03:59:52;19.50;84.00
17421;DHT22;8828;48.800;9.540;2022-09-03T04:02:20;19.50;84.20
17421;DHT22;8828;48.800;9.540;2022-09-03T04:04:48;19.50;84.30
17421;DHT22;8828;48.800;9.540;2022-09-03T04:07:16;19.40;84.50
17421;DHT22;8828;48.800;9.540;2022-09-03T04:09:44;19.40;84.70
17421;DHT22;8828;48.800;9.540;2022-09-03T04:12:12;19.40;84.90
17421;DHT22;8828;48.800;9.540;2022-09-03T04:14:42;19.40;85.10
17421;DHT22;8828;48.800;9.540;2022-09-03T04:17:10;19.40;86.20
17421;DHT22;8828;48.800;9.540;2022-09-03T04:19:38;19.40;85.60
17421;DHT22;8828;48.800;9.540;2022-09-03T04:22:06;19.40;85.60
17421;DHT22;8828;48.800;9.540;2022-09-03T04:24:34;19.30;85.90
17421;DHT22;8828;48.800;9.540;2022-09-03T04:27:02;19.30;86.00
17421;DHT22;8828;48.800;9.540;2022-09-03T04:29:30;19.30;86.40
17421;DHT22;8828;48.800;9.540;2022-09-03T04:32:00;19.30;86.40
17421;DHT22;8828;48.800;9.540;2022-09-03T04:34:45;19.30;86.50
17421;DHT22;8828;48.800;9.540;2022-09-03T04:37:13;19.30;86.50
17421;DHT22;8828;48.800;9.540;2022-09-03T04:39:42;19.30;86.30
17421;DHT22;8828;48.800;9.540;2022-09-03T04:42:10;19.30;86.50
17421;DHT22;8828;48.800;9.540;2022-09-03T04:44:38;19.30;86.70
17421;DHT22;8828;48.800;9.540;2022-09-03T04:47:08;19.30;86.70
17421;DHT22;8828;48.800;9.540;2022-09-03T04:49:36;19.30;86.70
17421;DHT22;8828;48.800;9.540;2022-09-03T04:52:05;19.30;86.70
17421;DHT22;8828;48.800;9.540;2022-09-03T04:54:33;19.40;86.70
17421;DHT22;8828;48.800;9.540;2022-09-03T04:57:01;19.40;87.50
17421;DHT22;8828;48.800;9.540;2022-09-03T04:59:29;19.40;86.90
17421;DHT22;8828;48.800;9.540;2022-09-03T05:01:57;19.50;87.10
17421;DHT22;8828;48.800;9.540;2022-09-03T05:04:27;19.40;87.60
17421;DHT22;8828;48.800;9.540;2022-09-03T05:06:55;19.50;87.60
17421;DHT22;8828;48.800;9.540;2022-09-03T05:09:23;19.40;87.40
17421;DHT22;8828;48.800;9.540;2022-09-03T05:11:51;19.50;87.40
17421;DHT22;8828;48.800;9.540;2022-09-03T05:14:19;19.40;87.60
17421;DHT22;8828;48.800;9.540;2022-09-03T05:16:47;19.40;87.70
17421;DHT22;8828;48.800;9.540;2022-09-03T05:19:19;19.40;87.90
17421;DHT22;8828;48.800;9.540;2022-09-03T05:21:48;19.50;88.20
17421;DHT22;8828;48.800;9.540;2022-09-03T05:24:16;19.50;88.20
17421;DHT22;8828;48.800;9.540;2022-09-03T05:26:44;19.50;88.30
17421;DHT22;8828;48.800;9.540;2022-09-03T05:29:12;19.50;88.30
17421;DHT22;8828;48.800;9.540;2022-09-03T05:31:41;19.50;88.60
17421;DHT22;8828;48.800;9.540;2022-09-03T05:34:09;19.50;88.80
17421;DHT22;8828;48.800;9.540;2022-09-03T05:36:43;19.50;88.50
17421;DHT22;8828;48.800;9.540;2022-09-03T05:39:14;19.50;88.50
17421;DHT22;8828;48.800;9.540;2022-09-03T05:41:42;19.50;88.60
17421;DHT22;8828;48.800;9.540;2022-09-03T05:44:10;19.50;88.60
17421;DHT22;8828;48.800;9.540;2022-09-03T05:46:38;19.50;88.80
17421;DHT22;8828;48.800;9.540;2022-09-03T05:49:06;19.50;88.60
17421;DHT22;8828;48.800;9.540;2022-09-03T05:51:35;19.50;88.50
17421;DHT22;8828;48.800;9.540;2022-09-03T05:54:05;19.50;88.50
17421;DHT22;8828;48.800;9.540;2022-09-03T05:56:37;19.50;88.40
17421;DHT22;8828;48.800;9.540;2022-09-03T05:59:07;19.50;88.50
17421;DHT22;8828;48.800;9.540;2022-09-03T06:01:37;19.60;88.90
17421;DHT22;8828;48.800;9.540;2022-09-03T06:04:07;19.50;89.30
17421;DHT22;8828;48.800;9.540;2022-09-03T06:06:38;19.50;89.30
17421;DHT22;8828;48.800;9.540;2022-09-03T06:09:07;19.50;90.20
17421;DHT22;8828;48.800;9.540;2022-09-03T06:11:38;19.50;90.40
17421;DHT22;8828;48.800;9.540;2022-09-03T06:14:10;19.60;90.20
17421;DHT22;8828;48.800;9.540;2022-09-03T06:16:39;19.60;90.90
17421;DHT22;8828;48.800;9.540;2022-09-03T06:19:08;19.60;91.00
17421;DHT22;8828;48.800;9.540;2022-09-03T06:21:38;19.60;91.30
17421;DHT22;8828;48.800;9.540;2022-09-03T06:24:09;19.70;91.80
17421;DHT22;8828;48.800;9.540;2022-09-03T06:26:39;19.70;91.90
17421;DHT22;8828;48.800;9.540;2022-09-03T06:29:09;19.70;92.40
17421;DHT22;8828;48.800;9.540;2022-09-03T06:31:37;19.70;91.90
17421;DHT22;8828;48.800;9.540;2022-09-03T06:34:06;19.70;91.70
17421;DHT22;8828;48.800;9.540;2022-09-03T06:36:34;19.70;91.90
17421;DHT22;8828;48.800;9.540;2022-09-03T06:39:02;19.70;91.90
17421;DHT22;8828;48.800;9.540;2022-09-03T06:41:31;19.80;91.60
17421;DHT22;8828;48.800;9.540;2022-09-03T06:44:04;19.80;91.70
17421;DHT22;8828;48.800;9.540;2022-09-03T06:46:33;19.80;91.90
17421;DHT22;8828;48.800;9.540;2022-09-03T06:49:04;19.80;91.90
17421;DHT22;8828;48.800;9.540;2022-09-03T06:51:34;19.80;91.80
17421;DHT22;8828;48.800;9.540;2022-09-03T06:54:04;19.90;91.90
17421;DHT22;8828;48.800;9.540;2022-09-03T06:56:33;19.90;91.80
17421;DHT22;8828;48.800;9.540;2022-09-03T06:59:09;20.00;92.00
17421;DHT22;8828;48.800;9.540;2022-09-03T07:01:37;20.00;92.20
17421;DHT22;8828;48.800;9.540;2022-09-03T07:04:11;20.00;92.10
17421;DHT22;8828;48.800;9.540;2022-09-03T07:06:42;20.10;92.70
17421;DHT22;8828;48.800;9.540;2022-09-03T07:09:13;20.20;92.60
17421;DHT22;8828;48.800;9.540;2022-09-03T07:11:43;20.20;92.80
17421;DHT22;8828;48.800;9.540;2022-09-03T07:14:16;20.30;93.10
17421;DHT22;8828;48.800;9.540;2022-09-03T07:16:45;20.30;93.30
17421;DHT22;8828;48.800;9.540;2022-09-03T07:19:14;20.40;93.30
17421;DHT22;8828;48.800;9.540;2022-09-03T07:21:42;20.40;93.60
17421;DHT22;8828;48.800;9.540;2022-09-03T07:24:16;20.40;93.70
17421;DHT22;8828;48.800;9.540;2022-09-03T07:26:45;20.40;94.30
17421;DHT22;8828;48.800;9.540;2022-09-03T07:29:16;20.30;94.10
17421;DHT22;8828;48.800;9.540;2022-09-03T07:31:46;20.40;93.80
17421;DHT22;8828;48.800;9.540;2022-09-03T07:34:17;20.40;93.90
17421;DHT22;8828;48.800;9.540;2022-09-03T07:36:48;20.40;94.30
17421;DHT22;8828;48.800;9.540;2022-09-03T07:39:17;20.40;95.00
17421;DHT22;8828;48.800;9.540;2022-09-03T07:41:46;20.40;95.20
17421;DHT22;8828;48.800;9.540;2022-09-03T07:44:17;20.40;95.10
17421;DHT22;8828;48.800;9.540;2022-09-03T07:46:47;20.40;95.40
17421;DHT22;8828;48.800;9.540;2022-09-03T07:49:17;20.40;95.70
17421;DHT22;8828;48.800;9.540;2022-09-03T07:51:45;20.50;95.60
17421;DHT22;8828;48.800;9.540;2022-09-03T07:54:16;20.50;95.50
17421;DHT22;8828;48.800;9.540;2022-09-03T07:56:45;20.50;95.70
17421;DHT22;8828;48.800;9.540;2022-09-03T07:59:13;20.50;96.00
17421;DHT22;8828;48.800;9.540;2022-09-03T08:01:42;20.50;96.20
17421;DHT22;8828;48.800;9.540;2022-09-03T08:04:10;20.50;96.30
17421;DHT22;8828;48.800;9.540;2022-09-03T08:06:39;20.50;96.30
17421;DHT22;8828;48.800;9.540;2022-09-03T08:09:09;20.50;96.70
17421;DHT22;8828;48.800;9.540;2022-09-03T08:11:41;20.50;97.30
17421;DHT22;8828;48.800;9.540;2022-09-03T08:14:11;20.50;96.90
17421;DHT22;8828;48.800;9.540;2022-09-03T08:16:42;20.50;97.00
17421;DHT22;8828;48.800;9.540;2022-09-03T08:19:11;20.60;97.20
17421;DHT22;8828;48.800;9.540;2022-09-03T08:21:40;20.60;97.20
17421;DHT22;8828;48.800;9.540;2022-09-03T08:24:09;20.60;97.60
17421;DHT22;8828;48.800;9.540;2022-09-03T08:26:39;20.70;97.70
17421;DHT22;8828;48.800;9.540;2022-09-03T08:29:16;20.80;97.50
17421;DHT22;8828;48.800;9.540;2022-09-03T08:31:45;20.90;97.90
17421;DHT22;8828;48.800;9.540;2022-09-03T08:34:13;21.00;97.50
17421;DHT22;8828;48.800;9.540;2022-09-03T08:36:43;21.00;97.70
17421;DHT22;8828;48.800;9.540;2022-09-03T08:39:12;21.20;97.60
17421;DHT22;8828;48.800;9.540;2022-09-03T08:44:39;21.40;97.40
17421;DHT22;8828;48.800;9.540;2022-09-03T08:47:12;21.50;97.70
17421;DHT22;8828;48.800;9.540;2022-09-03T08:49:44;21.60;97.50
17421;DHT22;8828;48.800;9.540;2022-09-03T08:52:21;21.80;97.20
17421;DHT22;8828;48.800;9.540;2022-09-03T08:54:51;21.90;97.00
17421;DHT22;8828;48.800;9.540;2022-09-03T08:57:21;22.00;97.10
17421;DHT22;8828;48.800;9.540;2022-09-03T08:59:53;22.00;96.70
17421;DHT22;8828;48.800;9.540;2022-09-03T09:02:30;22.00;96.80
17421;DHT22;8828;48.800;9.540;2022-09-03T09:05:06;22.10;96.60
17421;DHT22;8828;48.800;9.540;2022-09-03T09:07:45;22.10;96.70
17421;DHT22;8828;48.800;9.540;2022-09-03T09:10:21;22.10;97.00
17421;DHT22;8828;48.800;9.540;2022-09-03T09:13:02;22.10;97.10
17421;DHT22;8828;48.800;9.540;2022-09-03T09:15:39;22.10;97.10
17421;DHT22;8828;48.800;9.540;2022-09-03T09:18:19;22.20;97.20
17421;DHT22;8828;48.800;9.540;2022-09-03T09:20:49;22.40;97.10
17421;DHT22;8828;48.800;9.540;2022-09-03T09:23:24;22.50;97.00
17421;DHT22;8828;48.800;9.540;2022-09-03T09:25:55;22.80;96.90
17421;DHT22;8828;48.800;9.540;2022-09-03T09:28:29;23.00;96.90
17421;DHT22;8828;48.800;9.540;2022-09-03T09:31:00;23.30;96.50
17421;DHT22;8828;48.800;9.540;2022-09-03T09:33:33;23.60;96.30
17421;DHT22;8828;48.800;9.540;2022-09-03T09:36:02;23.80;95.40
17421;DHT22;8828;48.800;9.540;2022-09-03T09:38:33;24.00;95.30
17421;DHT22;8828;48.800;9.540;2022-09-03T09:41:09;24.20;94.60
17421;DHT22;8828;48.800;9.540;2022-09-03T09:43:38;24.30;94.10
17421;DHT22;8828;48.800;9.540;2022-09-03T09:46:11;24.30;93.80
17421;DHT22;8828;48.800;9.540;2022-09-03T09:48:47;24.30;94.00
17421;DHT22;8828;48.800;9.540;2022-09-03T09:51:18;24.30;93.10
17421;DHT22;8828;48.800;9.540;2022-09-03T09:53:47;24.40;93.00
17421;DHT22;8828;48.800;9.540;2022-09-03T09:56:20;24.40;92.80
17421;DHT22;8828;48.800;9.540;2022-09-03T09:58:49;24.30;92.50
17421;DHT22;8828;48.800;9.540;2022-09-03T10:01:28;24.40;92.60
17421;DHT22;8828;48.800;9.540;2022-09-03T10:04:07;24.20;92.80
17421;DHT22;8828;48.800;9.540;2022-09-03T10:06:36;24.30;92.90
17421;DHT22;8828;48.800;9.540;2022-09-03T10:09:25;24.20;92.70
17421;DHT22;8828;48.800;9.540;2022-09-03T10:12:06;24.30;93.00
17421;DHT22;8828;48.800;9.540;2022-09-03T10:14:43;24.60;93.50
17421;DHT22;8828;48.800;9.540;2022-09-03T10:17:19;24.90;93.90
17421;DHT22;8828;48.800;9.540;2022-09-03T10:20:09;25.20;93.20
17421;DHT22;8828;48.800;9.540;2022-09-03T10:23:05;25.60;92.70
17421;DHT22;8828;48.800;9.540;2022-09-03T10:25:39;25.90;92.60
17421;DHT22;8828;48.800;9.540;2022-09-03T10:28:17;26.10;91.90
17421;DHT22;8828;48.800;9.540;2022-09-03T10:31:07;26.30;91.20
17421;DHT22;8828;48.800;9.540;2022-09-03T10:33:45;26.50;90.00
17421;DHT22;8828;48.800;9.540;2022-09-03T10:36:19;26.70;90.00
17421;DHT22;8828;48.800;9.540;2022-09-03T10:38:53;26.90;89.00
17421;DHT22;8828;48.800;9.540;2022-09-03T10:41:33;27.00;89.50
17421;DHT22;8828;48.800;9.540;2022-09-03T10:44:33;27.20;88.50
17421;DHT22;8828;48.800;9.540;2022-09-03T10:47:24;27.30;87.20
17421;DHT22;8828;48.800;9.540;2022-09-03T10:50:02;27.30;86.20
17421;DHT22;8828;48.800;9.540;2022-09-03T10:52:41;27.30;85.50
17421;DHT22;8828;48.800;9.540;2022-09-03T10:55:20;27.20;86.00
17421;DHT22;8828;48.800;9.540;2022-09-03T10:57:57;27.10;86.40
17421;DHT22;8828;48.800;9.540;2022-09-03T11:00:32;26.90;85.40
17421;DHT22;8828;48.800;9.540;2022-09-03T11:03:38;26.90;86.40
17421;DHT22;8828;48.800;9.540;2022-09-03T11:06:14;26.70;87.30
17421;DHT22;8828;48.800;9.540;2022-09-03T11:08:52;26.60;87.50
17421;DHT22;8828;48.800;9.540;2022-09-03T11:11:25;26.60;87.80
17421;DHT22;8828;48.800;9.540;2022-09-03T11:13:58;26.50;87.00
17421;DHT22;8828;48.800;9.540;2022-09-03T11:16:32;26.50;87.10
17421;DHT22;8828;48.800;9.540;2022-09-03T11:19:04;26.50;86.90
17421;DHT22;8828;48.800;9.540;2022-09-03T11:21:34;26.50;86.60
17421;DHT22;8828;48.800;9.540;2022-09-03T11:24:11;26.60;87.40
17421;DHT22;8828;48.800;9.540;2022-09-03T11:26:42;26.60;86.50
17421;DHT22;8828;48.800;9.540;2022-09-03T11:29:16;26.70;86.40
17421;DHT22;8828;48.800;9.540;2022-09-03T11:31:53;26.70;86.50
17421;DHT22;8828;48.800;9.540;2022-09-03T11:34:29;26.70;86.70
17421;DHT22;8828;48.800;9.540;2022-09-03T11:37:14;26.70;87.90
17421;DHT22;8828;48.800;9.540;2022-09-03T11:39:53;26.70;87.80
17421;DHT22;8828;48.800;9.540;2022-09-03T11:42:31;26.70;88.10
17421;DHT22;8828;48.800;9.540;2022-09-03T11:45:13;26.70;87.20
17421;DHT22;8828;48.800;9.540;2022-09-03T11:47:47;26.70;87.30
17421;DHT22;8828;48.800;9.540;2022-09-03T11:50:20;26.60;87.70
17421;DHT22;8828;48.800;9.540;2022-09-03T11:52:50;26.60;87.20
17421;DHT22;8828;48.800;9.540;2022-09-03T11:55:29;26.50;86.90
17421;DHT22;8828;48.800;9.540;2022-09-03T11:58:11;26.50;87.40
17421;DHT22;8828;48.800;9.540;2022-09-03T12:00:40;26.40;87.80
17421;DHT22;8828;48.800;9.540;2022-09-03T12:03:13;26.40;87.80
17421;DHT22;8828;48.800;9.540;2022-09-03T12:05:50;26.40;87.30
17421;DHT22;8828;48.800;9.540;2022-09-03T12:08:52;26.40;87.60
17421;DHT22;8828;48.800;9.540;2022-09-03T12:11:40;26.30;87.60
17421;DHT22;8828;48.800;9.540;2022-09-03T12:14:19;26.20;87.50
17421;DHT22;8828;48.800;9.540;2022-09-03T12:16:59;26.20;87.90
17421;DHT22;8828;48.800;9.540;2022-09-03T12:19:36;26.10;88.10
17421;DHT22;8828;48.800;9.540;2022-09-03T12:22:04;26.10;87.80
17421;DHT22;8828;48.800;9.540;2022-09-03T12:24:33;26.10;88.00
17421;DHT22;8828;48.800;9.540;2022-09-03T12:27:07;26.10;89.10
17421;DHT22;8828;48.800;9.540;2022-09-03T12:29:36;26.10;88.50
17421;DHT22;8828;48.800;9.540;2022-09-03T12:32:08;26.10;89.20
17421;DHT22;8828;48.800;9.540;2022-09-03T12:34:38;26.00;89.80
17421;DHT22;8828;48.800;9.540;2022-09-03T12:37:21;26.10;90.70
17421;DHT22;8828;48.800;9.540;2022-09-03T12:40:18;26.00;90.80
17421;DHT22;8828;48.800;9.540;2022-09-03T12:42:49;25.90;91.70
17421;DHT22;8828;48.800;9.540;2022-09-03T12:45:19;25.90;91.80
17421;DHT22;8828;48.800;9.540;2022-09-03T12:47:49;25.60;92.40
17421;DHT22;8828;48.800;9.540;2022-09-03T12:50:22;25.10;92.60
17421;DHT22;8828;48.800;9.540;2022-09-03T12:52:52;24.60;92.70
17421;DHT22;8828;48.800;9.540;2022-09-03T12:55:27;24.30;93.40
17421;DHT22;8828;48.800;9.540;2022-09-03T12:58:02;24.00;93.80
17421;DHT22;8828;48.800;9.540;2022-09-03T13:00:33;23.70;94.20
17421;DHT22;8828;48.800;9.540;2022-09-03T13:03:06;23.40;95.20
17421;DHT22;8828;48.800;9.540;2022-09-03T13:05:41;23.20;95.80
17421;DHT22;8828;48.800;9.540;2022-09-03T13:08:16;23.00;96.50
17421;DHT22;8828;48.800;9.540;2022-09-03T13:10:51;22.80;96.90
17421;DHT22;8828;48.800;9.540;2022-09-03T13:13:26;22.60;97.50
17421;DHT22;8828;48.800;9.540;2022-09-03T13:16:12;22.50;98.00
17421;DHT22;8828;48.800;9.540;2022-09-03T13:18:46;22.30;98.80
17421;DHT22;8828;48.800;9.540;2022-09-03T13:21:31;22.20;99.50
17421;DHT22;8828;48.800;9.540;2022-09-03T13:24:26;22.10;99.80
17421;DHT22;8828;48.800;9.540;2022-09-03T13:27:03;21.90;99.90
17421;DHT22;8828;48.800;9.540;2022-09-03T13:29:41;21.90;99.90
17421;DHT22;8828;48.800;9.540;2022-09-03T13:32:26;21.80;99.90
17421;DHT22;8828;48.800;9.540;2022-09-03T13:34:58;21.80;99.90
17421;DHT22;8828;48.800;9.540;2022-09-03T13:37:34;21.70;99.90
17421;DHT22;8828;48.800;9.540;2022-09-03T13:40:12;21.70;99.90
17421;DHT22;8828;48.800;9.540;2022-09-03T13:42:44;21.60;99.90
17421;DHT22;8828;48.800;9.540;2022-09-03T13:45:27;21.50;99.90
17421;DHT22;8828;48.800;9.540;2022-09-03T13:48:01;21.50;99.90
17421;DHT22;8828;48.800;9.540;2022-09-03T13:50:58;21.40;99.90
17421;DHT22;8828;48.800;9.540;2022-09-03T13:53:38;21.40;99.90
17421;DHT22;8828;48.800;9.540;2022-09-03T13:56:18;21.40;99.90
17421;DHT22;8828;48.800;9.540;2022-09-03T13:58:53;21.40;99.90
17421;DHT22;8828;48.800;9.540;2022-09-03T14:01:38;21.40;99.90
17421;DHT22;8828;48.800;9.540;2022-09-03T14:04:16;21.40;99.90
17421;DHT22;8828;48.800;9.540;2022-09-03T14:06:54;21.50;99.90
17421;DHT22;8828;48.800;9.540;2022-09-03T14:09:29;21.60;99.90
17421;DHT22;8828;48.800;9.540;2022-09-03T14:12:04;21.80;99.90
17421;DHT22;8828;48.800;9.540;2022-09-03T14:14:40;22.00;99.90
17421;DHT22;8828;48.800;9.540;2022-09-03T14:17:18;22.10;99.90
17421;DHT22;8828;48.800;9.540;2022-09-03T14:19:55;22.30;99.90
17421;DHT22;8828;48.800;9.540;2022-09-03T14:22:28;22.50;99.90
17421;DHT22;8828;48.800;9.540;2022-09-03T14:25:00;22.70;99.90
17421;DHT22;8828;48.800;9.540;2022-09-03T14:27:30;22.80;99.90
17421;DHT22;8828;48.800;9.540;2022-09-03T14:30:01;22.90;99.90
17421;DHT22;8828;48.800;9.540;2022-09-03T14:32:39;22.90;99.90
17421;DHT22;8828;48.800;9.540;2022-09-03T14:41:09;23.10;99.90
17421;DHT22;8828;48.800;9.540;2022-09-03T14:44:08;23.00;99.90
17421;DHT22;8828;48.800;9.540;2022-09-03T14:46:49;23.00;99.90
17421;DHT22;8828;48.800;9.540;2022-09-03T14:49:43;23.00;99.90
17421;DHT22;8828;48.800;9.540;2022-09-03T14:52:25;23.00;99.90
17421;DHT22;8828;48.800;9.540;2022-09-03T14:55:14;23.00;99.90
17421;DHT22;8828;48.800;9.540;2022-09-03T14:58:05;23.00;99.90
17421;DHT22;8828;48.800;9.540;2022-09-03T15:00:44;23.00;99.90
17421;DHT22;8828;48.800;9.540;2022-09-03T15:03:38;23.00;99.90
17421;DHT22;8828;48.800;9.540;2022-09-03T15:06:20;23.00;99.90
17421;DHT22;8828;48.800;9.540;2022-09-03T15:09:18;22.90;99.90
17421;DHT22;8828;48.800;9.540;2022-09-03T15:11:53;22.80;99.90
17421;DHT22;8828;48.800;9.540;2022-09-03T15:14:26;22.70;99.90
17421;DHT22;8828;48.800;9.540;2022-09-03T15:16:59;22.60;99.90
17421;DHT22;8828;48.800;9.540;2022-09-03T15:19:43;22.60;99.90
17421;DHT22;8828;48.800;9.540;2022-09-03T15:22:26;22.50;99.90
17421;DHT22;8828;48.800;9.540;2022-09-03T15:25:12;22.40;99.90
17421;DHT22;8828;48.800;9.540;2022-09-03T15:28:04;22.40;99.90
17421;DHT22;8828;48.800;9.540;2022-09-03T15:30:35;22.30;99.90
17421;DHT22;8828;48.800;9.540;2022-09-03T15:33:14;22.30;99.90
17421;DHT22;8828;48.800;9.540;2022-09-03T15:36:02;22.30;99.90
17421;DHT22;8828;48.800;9.540;2022-09-03T15:38:39;22.20;99.90
17421;DHT22;8828;48.800;9.540;2022-09-03T15:41:19;22.20;99.90
17421;DHT22;8828;48.800;9.540;2022-09-03T15:43:49;22.20;99.90
17421;DHT22;8828;48.800;9.540;2022-09-03T15:46:46;22.10;99.90
17421;DHT22;8828;48.800;9.540;2022-09-03T15:49:32;22.10;99.90
17421;DHT22;8828;48.800;9.540;2022-09-03T15:52:08;22.10;99.90
17421;DHT22;8828;48.800;9.540;2022-09-03T15:54:45;22.10;99.90
17421;DHT22;8828;48.800;9.540;2022-09-03T15:57:19;22.10;99.90
17421;DHT22;8828;48.800;9.540;2022-09-03T15:59:51;22.10;99.90
17421;DHT22;8828;48.800;9.540;2022-09-03T16:02:26;22.10;99.90
17421;DHT22;8828;48.800;9.540;2022-09-03T16:05:04;22.10;99.90
17421;DHT22;8828;48.800;9.540;2022-09-03T16:08:02;22.10;99.90
17421;DHT22;8828;48.800;9.540;2022-09-03T16:10:45;22.10;99.90
17421;DHT22;8828;48.800;9.540;2022-09-03T16:13:30;22.10;99.90
17421;DHT22;8828;48.800;9.540;2022-09-03T16:16:02;22.00;99.90
17421;DHT22;8828;48.800;9.540;2022-09-03T16:18:33;22.00;99.90
17421;DHT22;8828;48.800;9.540;2022-09-03T16:21:07;22.00;99.90
17421;DHT22;8828;48.800;9.540;2022-09-03T16:23:41;21.90;99.90
17421;DHT22;8828;48.800;9.540;2022-09-03T16:26:20;21.90;99.90
17421;DHT22;8828;48.800;9.540;2022-09-03T16:28:53;21.90;99.90
17421;DHT22;8828;48.800;9.540;2022-09-03T16:31:35;21.90;99.90
17421;DHT22;8828;48.800;9.540;2022-09-03T16:34:11;21.80;99.90
17421;DHT22;8828;48.800;9.540;2022-09-03T16:36:50;21.80;99.90
17421;DHT22;8828;48.800;9.540;2022-09-03T16:39:30;21.80;99.90
17421;DHT22;8828;48.800;9.540;2022-09-03T16:42:07;21.80;99.90
17421;DHT22;8828;48.800;9.540;2022-09-03T16:44:49;21.70;99.90